sensor_id;sensor_type;location;lat;lon;timestamp;P1;durP1;ratioP1;P2;durP2;ratioP2
45944;SDS011;31655;48.972;10.686;2023-04-15T01:51:38;12.55;;;8.70;;
45944;SDS011;31655;48.972;10.686;2023-04-15T01:54:04;15.95;;;8.77;;
45944;SDS011;31655;48.972;10.686;2023-04-15T01:56:31;13.70;;;8.27;;
45944;SDS011;31655;48.972;10.686;2023-04-15T01:58:58;15.45;;;9.02;;
45944;SDS011;31655;48.972;10.686;2023-04-15T02:01:24;11.48;;;8.48;;
45944;SDS011;31655;48.972;10.686;2023-04-15T02:03:51;12.38;;;8.45;;
45944;SDS011;31655;48.972;10.686;2023-04-15T02:06:17;13.77;;;8.45;;
45944;SDS011;31655;48.972;10.686;2023-04-15T02:08:43;13.00;;;8.32;;
45944;SDS011;31655;48.972;10.686;2023-04-15T02:11:12;13.50;;;8.35;;
45944;SDS011;31655;48.972;10.686;2023-04-15T02:13:40;14.10;;;8.10;;
45944;SDS011;31655;48.972;10.686;2023-04-15T02:16:14;15.68;;;8.68;;
45944;SDS011;31655;48.972;10.686;2023-04-15T02:18:41;13.45;;;8.57;;
45944;SDS011;31655;48.972;10.686;2023-04-15T02:21:09;13.63;;;7.93;;
45944;SDS011;31655;48.972;10.686;2023-04-15T02:23:37;14.65;;;8.80;;
45944;SDS011;31655;48.972;10.686;2023-04-15T02:26:03;11.48;;;6.55;;
45944;SDS011;31655;48.972;10.686;2023-04-15T05:42:46;20.17;;;11.63;;
45944;SDS011;31655;48.972;10.686;2023-04-15T05:45:12;19.58;;;10.40;;
45944;SDS011;31655;48.972;10.686;2023-04-15T05:47:38;16.00;;;8.85;;
45944;SDS011;31655;48.972;10.686;2023-04-15T05:50:04;14.80;;;8.48;;
45944;SDS011;31655;48.972;10.686;2023-04-15T05:52:30;13.30;;;8.82;;
45944;SDS011;31655;48.972;10.686;2023-04-15T05:54:56;14.18;;;9.55;;
45944;SDS011;31655;48.972;10.686;2023-04-15T05:57:22;16.63;;;10.05;;
45944;SDS011;31655;48.972;10.686;2023-04-15T05:59:48;16.98;;;9.85;;
45944;SDS011;31655;48.972;10.686;2023-04-15T06:02:17;14.77;;;9.85;;
45944;SDS011;31655;48.972;10.686;2023-04-15T06:04:43;12.38;;;7.90;;
45944;SDS011;31655;48.972;10.686;2023-04-15T06:07:09;12.52;;;8.73;;
45944;SDS011;31655;48.972;10.686;2023-04-15T06:09:35;18.92;;;10.90;;
45944;SDS011;31655;48.972;10.686;2023-04-15T06:12:00;12.43;;;7.60;;
45944;SDS011;31655;48.972;10.686;2023-04-15T06:14:27;12.93;;;7.88;;
45944;SDS011;31655;48.972;10.686;2023-04-15T06:16:52;10.65;;;6.18;;
45944;SDS011;31655;48.972;10.686;2023-04-15T06:19:18;10.88;;;6.18;;
45944;SDS011;31655;48.972;10.686;2023-04-15T06:21:44;10.38;;;6.43;;
45944;SDS011;31655;48.972;10.686;2023-04-15T06:24:11;8.02;;;5.25;;
45944;SDS011;31655;48.972;10.686;2023-04-15T06:26:37;13.80;;;7.65;;
45944;SDS011;31655;48.972;10.686;2023-04-15T06:29:02;13.15;;;8.73;;
45944;SDS011;31655;48.972;10.686;2023-04-15T06:31:28;11.10;;;6.25;;
45944;SDS011;31655;48.972;10.686;2023-04-15T06:33:55;12.55;;;6.75;;
45944;SDS011;31655;48.972;10.686;2023-04-15T06:36:20;8.25;;;5.40;;
45944;SDS011;31655;48.972;10.686;2023-04-15T06:38:46;9.82;;;5.82;;
45944;SDS011;31655;48.972;10.686;2023-04-15T06:41:12;11.48;;;7.47;;
45944;SDS011;31655;48.972;10.686;2023-04-15T06:43:38;14.95;;;10.40;;
45944;SDS011;31655;48.972;10.686;2023-04-15T06:46:04;15.35;;;7.20;;
45944;SDS011;31655;48.972;10.686;2023-04-15T06:48:30;10.68;;;6.45;;
45944;SDS011;31655;48.972;10.686;2023-04-15T06:50:56;9.48;;;6.30;;
45944;SDS011;31655;48.972;10.686;2023-04-15T06:53:23;10.45;;;5.93;;
45944;SDS011;31655;48.972;10.686;2023-04-15T06:55:51;9.68;;;6.60;;
45944;SDS011;31655;48.972;10.686;2023-04-15T06:58:17;8.90;;;5.53;;
45944;SDS011;31655;48.972;10.686;2023-04-15T07:00:43;9.13;;;5.50;;
45944;SDS011;31655;48.972;10.686;2023-04-15T07:03:10;7.80;;;5.13;;
45944;SDS011;31655;48.972;10.686;2023-04-15T07:05:36;8.13;;;5.60;;
45944;SDS011;31655;48.972;10.686;2023-04-15T07:08:03;9.02;;;5.78;;
45944;SDS011;31655;48.972;10.686;2023-04-15T07:10:29;7.35;;;5.20;;
45944;SDS011;31655;48.972;10.686;2023-04-15T07:12:55;8.38;;;6.07;;
45944;SDS011;31655;48.972;10.686;2023-04-15T07:15:21;6.60;;;4.75;;
45944;SDS011;31655;48.972;10.686;2023-04-15T07:17:47;11.15;;;5.78;;
45944;SDS011;31655;48.972;10.686;2023-04-15T07:20:13;7.97;;;5.25;;
45944;SDS011;31655;48.972;10.686;2023-04-15T07:22:39;6.93;;;5.32;;
45944;SDS011;31655;48.972;10.686;2023-04-15T07:25:05;7.85;;;4.88;;
45944;SDS011;31655;48.972;10.686;2023-04-15T07:27:31;6.43;;;4.90;;
45944;SDS011;31655;48.972;10.686;2023-04-15T07:29:57;6.43;;;5.10;;
45944;SDS011;31655;48.972;10.686;2023-04-15T07:32:23;6.13;;;4.88;;
45944;SDS011;31655;48.972;10.686;2023-04-15T07:34:48;7.43;;;6.18;;
45944;SDS011;31655;48.972;10.686;2023-04-15T07:37:14;8.95;;;4.97;;
45944;SDS011;31655;48.972;10.686;2023-04-15T07:39:40;8.60;;;5.40;;
45944;SDS011;31655;48.972;10.686;2023-04-15T07:42:06;12.43;;;4.65;;
45944;SDS011;31655;48.972;10.686;2023-04-15T07:44:32;10.82;;;5.57;;
45944;SDS011;31655;48.972;10.686;2023-04-15T07:46:58;9.05;;;5.22;;
45944;SDS011;31655;48.972;10.686;2023-04-15T07:49:24;7.50;;;5.00;;
45944;SDS011;31655;48.972;10.686;2023-04-15T07:51:50;7.78;;;5.35;;
45944;SDS011;31655;48.972;10.686;2023-04-15T07:54:15;9.07;;;5.30;;
45944;SDS011;31655;48.972;10.686;2023-04-15T07:56:41;8.25;;;5.00;;
45944;SDS011;31655;48.972;10.686;2023-04-15T07:59:07;8.52;;;6.32;;
45944;SDS011;31655;48.972;10.686;2023-04-15T08:01:34;9.68;;;5.07;;
45944;SDS011;31655;48.972;10.686;2023-04-15T08:04:00;8.73;;;5.35;;
45944;SDS011;31655;48.972;10.686;2023-04-15T08:06:27;7.07;;;5.50;;
45944;SDS011;31655;48.972;10.686;2023-04-15T08:08:53;6.88;;;4.90;;
45944;SDS011;31655;48.972;10.686;2023-04-15T08:11:19;7.28;;;5.22;;
45944;SDS011;31655;48.972;10.686;2023-04-15T08:13:46;9.65;;;5.10;;
45944;SDS011;31655;48.972;10.686;2023-04-15T08:18:42;6.75;;;4.57;;
45944;SDS011;31655;48.972;10.686;2023-04-15T08:21:08;6.72;;;5.25;;
45944;SDS011;31655;48.972;10.686;2023-04-15T08:23:34;5.35;;;4.30;;
45944;SDS011;31655;48.972;10.686;2023-04-15T08:26:00;6.05;;;4.82;;
45944;SDS011;31655;48.972;10.686;2023-04-15T08:28:26;6.97;;;5.18;;
45944;SDS011;31655;48.972;10.686;2023-04-15T08:30:52;7.80;;;4.97;;
45944;SDS011;31655;48.972;10.686;2023-04-15T08:33:18;9.93;;;5.30;;
45944;SDS011;31655;48.972;10.686;2023-04-15T08:35:45;7.97;;;5.13;;
45944;SDS011;31655;48.972;10.686;2023-04-15T08:38:11;9.10;;;4.72;;
45944;SDS011;31655;48.972;10.686;2023-04-15T08:40:41;7.45;;;5.10;;
45944;SDS011;31655;48.972;10.686;2023-04-15T08:43:08;6.45;;;5.28;;
45944;SDS011;31655;48.972;10.686;2023-04-15T08:45:37;7.55;;;4.93;;
45944;SDS011;31655;48.972;10.686;2023-04-15T08:48:04;7.30;;;5.72;;
45944;SDS011;31655;48.972;10.686;2023-04-15T08:50:30;11.45;;;5.60;;
45944;SDS011;31655;48.972;10.686;2023-04-15T08:53:00;8.75;;;5.57;;
45944;SDS011;31655;48.972;10.686;2023-04-15T08:55:28;6.55;;;5.45;;
45944;SDS011;31655;48.972;10.686;2023-04-15T08:58:01;8.93;;;5.10;;
45944;SDS011;31655;48.972;10.686;2023-04-15T09:00:27;9.57;;;5.40;;
45944;SDS011;31655;48.972;10.686;2023-04-15T09:02:54;7.90;;;4.70;;
45944;SDS011;31655;48.972;10.686;2023-04-15T09:05:21;8.57;;;5.00;;
45944;SDS011;31655;48.972;10.686;2023-04-15T09:07:47;6.90;;;4.85;;
45944;SDS011;31655;48.972;10.686;2023-04-15T09:10:13;7.78;;;4.65;;
45944;SDS011;31655;48.972;10.686;2023-04-15T09:12:39;7.25;;;5.00;;
45944;SDS011;31655;48.972;10.686;2023-04-15T09:15:05;10.20;;;5.40;;
45944;SDS011;31655;48.972;10.686;2023-04-15T09:17:36;8.73;;;4.97;;
45944;SDS011;31655;48.972;10.686;2023-04-15T09:22:39;11.73;;;6.68;;
45944;SDS011;31655;48.972;10.686;2023-04-15T09:25:27;11.75;;;6.45;;
45944;SDS011;31655;48.972;10.686;2023-04-15T09:27:58;6.15;;;4.65;;
45944;SDS011;31655;48.972;10.686;2023-04-15T09:30:28;4.75;;;4.10;;
45944;SDS011;31655;48.972;10.686;2023-04-15T09:32:55;8.77;;;4.80;;
45944;SDS011;31655;48.972;10.686;2023-04-15T09:35:26;7.03;;;4.93;;
45944;SDS011;31655;48.972;10.686;2023-04-15T09:37:52;7.97;;;5.28;;
45944;SDS011;31655;48.972;10.686;2023-04-15T09:40:39;8.07;;;5.68;;
45944;SDS011;31655;48.972;10.686;2023-04-15T09:43:06;7.85;;;4.82;;
45944;SDS011;31655;48.972;10.686;2023-04-15T09:45:34;9.55;;;5.28;;
45944;SDS011;31655;48.972;10.686;2023-04-15T09:48:42;7.00;;;5.03;;
45944;SDS011;31655;48.972;10.686;2023-04-15T09:50:58;9.70;;;5.47;;
45944;SDS011;31655;48.972;10.686;2023-04-15T09:53:25;10.82;;;5.60;;
45944;SDS011;31655;48.972;10.686;2023-04-15T09:55:55;9.95;;;5.85;;
45944;SDS011;31655;48.972;10.686;2023-04-15T09:58:23;8.38;;;6.10;;
45944;SDS011;31655;48.972;10.686;2023-04-15T10:00:50;9.18;;;5.40;;
45944;SDS011;31655;48.972;10.686;2023-04-15T10:03:19;7.28;;;5.05;;
45944;SDS011;31655;48.972;10.686;2023-04-15T10:05:46;10.38;;;6.10;;
45944;SDS011;31655;48.972;10.686;2023-04-15T10:08:14;8.52;;;6.05;;
45944;SDS011;31655;48.972;10.686;2023-04-15T10:10:41;8.50;;;6.25;;
45944;SDS011;31655;48.972;10.686;2023-04-15T10:13:08;8.40;;;5.35;;
45944;SDS011;31655;48.972;10.686;2023-04-15T10:15:35;13.23;;;6.88;;
45944;SDS011;31655;48.972;10.686;2023-04-15T10:18:01;10.93;;;6.25;;
45944;SDS011;31655;48.972;10.686;2023-04-15T10:20:30;8.80;;;5.50;;
45944;SDS011;31655;48.972;10.686;2023-04-15T10:22:55;9.38;;;4.47;;
45944;SDS011;31655;48.972;10.686;2023-04-15T10:25:22;6.18;;;4.70;;
45944;SDS011;31655;48.972;10.686;2023-04-15T10:27:48;6.18;;;4.25;;
45944;SDS011;31655;48.972;10.686;2023-04-15T10:30:19;7.63;;;4.50;;
45944;SDS011;31655;48.972;10.686;2023-04-15T10:32:46;8.30;;;4.63;;
45944;SDS011;31655;48.972;10.686;2023-04-15T10:35:13;7.20;;;4.03;;
45944;SDS011;31655;48.972;10.686;2023-04-15T10:37:40;6.13;;;3.58;;
45944;SDS011;31655;48.972;10.686;2023-04-15T10:40:25;6.53;;;4.07;;
45944;SDS011;31655;48.972;10.686;2023-04-15T10:42:51;4.63;;;3.28;;
45944;SDS011;31655;48.972;10.686;2023-04-15T10:45:18;4.30;;;3.40;;
45944;SDS011;31655;48.972;10.686;2023-04-15T10:47:44;6.95;;;3.70;;
45944;SDS011;31655;48.972;10.686;2023-04-15T10:50:10;4.05;;;3.20;;
45944;SDS011;31655;48.972;10.686;2023-04-15T10:52:38;9.25;;;3.88;;
45944;SDS011;31655;48.972;10.686;2023-04-15T10:55:12;4.63;;;3.60;;
45944;SDS011;31655;48.972;10.686;2023-04-15T10:57:40;5.38;;;3.60;;
45944;SDS011;31655;48.972;10.686;2023-04-15T11:00:16;8.77;;;4.13;;
45944;SDS011;31655;48.972;10.686;2023-04-15T11:05:12;7.38;;;3.85;;
45944;SDS011;31655;48.972;10.686;2023-04-15T11:07:40;7.65;;;3.92;;
45944;SDS011;31655;48.972;10.686;2023-04-15T11:17:56;6.35;;;3.40;;
45944;SDS011;31655;48.972;10.686;2023-04-15T11:20:35;9.10;;;4.50;;
45944;SDS011;31655;48.972;10.686;2023-04-15T11:23:02;5.72;;;4.05;;
45944;SDS011;31655;48.972;10.686;2023-04-15T11:25:33;4.53;;;3.55;;
45944;SDS011;31655;48.972;10.686;2023-04-15T11:27:59;5.50;;;4.45;;
45944;SDS011;31655;48.972;10.686;2023-04-15T11:30:27;5.95;;;4.03;;
45944;SDS011;31655;48.972;10.686;2023-04-15T11:33:05;5.75;;;3.97;;
45944;SDS011;31655;48.972;10.686;2023-04-15T11:35:35;5.88;;;3.70;;
45944;SDS011;31655;48.972;10.686;2023-04-15T11:38:03;6.72;;;2.78;;
45944;SDS011;31655;48.972;10.686;2023-04-15T11:40:30;7.00;;;3.92;;
45944;SDS011;31655;48.972;10.686;2023-04-15T11:43:18;4.97;;;3.40;;
45944;SDS011;31655;48.972;10.686;2023-04-15T11:46:01;6.60;;;3.80;;
45944;SDS011;31655;48.972;10.686;2023-04-15T11:48:31;4.68;;;3.00;;
45944;SDS011;31655;48.972;10.686;2023-04-15T11:51:09;5.10;;;3.28;;
45944;SDS011;31655;48.972;10.686;2023-04-15T11:56:25;4.78;;;3.05;;
45944;SDS011;31655;48.972;10.686;2023-04-15T11:58:58;4.95;;;3.88;;
45944;SDS011;31655;48.972;10.686;2023-04-15T12:01:35;5.90;;;3.92;;
45944;SDS011;31655;48.972;10.686;2023-04-15T12:04:12;6.22;;;3.40;;
45944;SDS011;31655;48.972;10.686;2023-04-15T12:06:38;5.68;;;3.78;;
45944;SDS011;31655;48.972;10.686;2023-04-15T12:11:49;5.95;;;3.90;;
45944;SDS011;31655;48.972;10.686;2023-04-15T12:14:20;7.75;;;4.15;;
45944;SDS011;31655;48.972;10.686;2023-04-15T12:16:56;7.95;;;4.40;;
45944;SDS011;31655;48.972;10.686;2023-04-15T12:19:36;9.32;;;4.60;;
45944;SDS011;31655;48.972;10.686;2023-04-15T12:22:14;7.40;;;4.47;;
45944;SDS011;31655;48.972;10.686;2023-04-15T12:24:47;6.38;;;4.05;;
45944;SDS011;31655;48.972;10.686;2023-04-15T12:27:24;7.07;;;3.78;;
45944;SDS011;31655;48.972;10.686;2023-04-15T12:29:51;10.43;;;4.07;;
45944;SDS011;31655;48.972;10.686;2023-04-15T12:32:35;7.72;;;4.63;;
45944;SDS011;31655;48.972;10.686;2023-04-15T12:35:01;6.22;;;4.72;;
45944;SDS011;31655;48.972;10.686;2023-04-15T12:37:27;10.50;;;4.32;;
45944;SDS011;31655;48.972;10.686;2023-04-15T12:39:57;6.15;;;4.28;;
45944;SDS011;31655;48.972;10.686;2023-04-15T12:42:31;6.18;;;4.00;;
45944;SDS011;31655;48.972;10.686;2023-04-15T12:44:59;5.22;;;4.07;;
45944;SDS011;31655;48.972;10.686;2023-04-15T12:47:27;6.00;;;3.92;;
45944;SDS011;31655;48.972;10.686;2023-04-15T12:49:53;8.75;;;5.28;;
45944;SDS011;31655;48.972;10.686;2023-04-15T12:52:19;9.77;;;5.03;;
45944;SDS011;31655;48.972;10.686;2023-04-15T12:54:46;6.30;;;4.22;;
45944;SDS011;31655;48.972;10.686;2023-04-15T12:57:12;7.43;;;3.90;;
45944;SDS011;31655;48.972;10.686;2023-04-15T12:59:39;6.57;;;4.20;;
45944;SDS011;31655;48.972;10.686;2023-04-15T13:02:06;6.10;;;4.35;;
45944;SDS011;31655;48.972;10.686;2023-04-15T13:04:32;5.68;;;4.25;;
45944;SDS011;31655;48.972;10.686;2023-04-15T13:06:59;10.65;;;4.25;;
45944;SDS011;31655;48.972;10.686;2023-04-15T13:09:25;6.45;;;3.70;;
45944;SDS011;31655;48.972;10.686;2023-04-15T13:11:51;8.68;;;4.30;;
45944;SDS011;31655;48.972;10.686;2023-04-15T13:14:18;6.97;;;4.47;;
45944;SDS011;31655;48.972;10.686;2023-04-15T13:16:44;6.13;;;3.85;;
45944;SDS011;31655;48.972;10.686;2023-04-15T13:19:10;7.47;;;3.85;;
45944;SDS011;31655;48.972;10.686;2023-04-15T13:21:36;8.02;;;5.20;;
45944;SDS011;31655;48.972;10.686;2023-04-15T13:24:02;6.00;;;3.88;;
45944;SDS011;31655;48.972;10.686;2023-04-15T13:26:34;7.63;;;4.60;;
45944;SDS011;31655;48.972;10.686;2023-04-15T13:29:00;7.68;;;3.92;;
45944;SDS011;31655;48.972;10.686;2023-04-15T13:31:25;7.00;;;4.18;;
45944;SDS011;31655;48.972;10.686;2023-04-15T13:33:51;6.15;;;4.05;;
45944;SDS011;31655;48.972;10.686;2023-04-15T13:36:17;5.63;;;3.83;;
45944;SDS011;31655;48.972;10.686;2023-04-15T13:38:43;7.15;;;3.97;;
45944;SDS011;31655;48.972;10.686;2023-04-15T13:41:10;6.70;;;3.97;;
45944;SDS011;31655;48.972;10.686;2023-04-15T13:43:37;8.60;;;3.90;;
45944;SDS011;31655;48.972;10.686;2023-04-15T13:46:02;5.78;;;3.55;;
45944;SDS011;31655;48.972;10.686;2023-04-15T13:48:28;6.20;;;3.88;;
45944;SDS011;31655;48.972;10.686;2023-04-15T13:50:54;7.40;;;4.30;;
45944;SDS011;31655;48.972;10.686;2023-04-15T13:53:32;5.70;;;3.85;;
45944;SDS011;31655;48.972;10.686;2023-04-15T13:56:08;5.22;;;3.70;;
45944;SDS011;31655;48.972;10.686;2023-04-15T13:58:51;6.10;;;4.00;;
45944;SDS011;31655;48.972;10.686;2023-04-15T14:01:22;5.65;;;3.63;;
45944;SDS011;31655;48.972;10.686;2023-04-15T14:03:48;6.20;;;3.72;;
45944;SDS011;31655;48.972;10.686;2023-04-15T14:06:15;4.90;;;3.38;;
45944;SDS011;31655;48.972;10.686;2023-04-15T14:08:41;5.15;;;2.97;;
45944;SDS011;31655;48.972;10.686;2023-04-15T14:11:07;5.05;;;3.70;;
45944;SDS011;31655;48.972;10.686;2023-04-15T14:13:32;6.57;;;3.50;;
45944;SDS011;31655;48.972;10.686;2023-04-15T14:15:58;8.43;;;3.55;;
45944;SDS011;31655;48.972;10.686;2023-04-15T14:18:24;5.35;;;3.60;;
45944;SDS011;31655;48.972;10.686;2023-04-15T14:20:50;7.43;;;3.45;;
45944;SDS011;31655;48.972;10.686;2023-04-15T14:23:16;6.75;;;2.67;;
45944;SDS011;31655;48.972;10.686;2023-04-15T14:25:42;6.82;;;2.92;;
45944;SDS011;31655;48.972;10.686;2023-04-15T14:28:16;4.75;;;2.75;;
45944;SDS011;31655;48.972;10.686;2023-04-15T14:30:42;3.30;;;2.20;;
45944;SDS011;31655;48.972;10.686;2023-04-15T14:33:09;3.58;;;2.20;;
45944;SDS011;31655;48.972;10.686;2023-04-15T14:35:35;2.88;;;2.15;;
45944;SDS011;31655;48.972;10.686;2023-04-15T14:38:01;6.63;;;2.30;;
45944;SDS011;31655;48.972;10.686;2023-04-15T14:40:28;1.70;;;1.60;;
45944;SDS011;31655;48.972;10.686;2023-04-15T14:42:53;2.22;;;2.03;;
45944;SDS011;31655;48.972;10.686;2023-04-15T14:45:19;3.17;;;2.08;;
45944;SDS011;31655;48.972;10.686;2023-04-15T14:47:45;2.72;;;1.98;;
45944;SDS011;31655;48.972;10.686;2023-04-15T14:50:11;1.98;;;1.75;;
45944;SDS011;31655;48.972;10.686;2023-04-15T14:52:37;4.32;;;2.33;;
45944;SDS011;31655;48.972;10.686;2023-04-15T14:55:07;4.32;;;1.65;;
45944;SDS011;31655;48.972;10.686;2023-04-15T14:57:34;3.00;;;1.75;;
45944;SDS011;31655;48.972;10.686;2023-04-15T15:00:00;2.08;;;1.73;;
45944;SDS011;31655;48.972;10.686;2023-04-15T15:02:27;2.33;;;2.13;;
45944;SDS011;31655;48.972;10.686;2023-04-15T15:04:53;2.13;;;1.48;;
45944;SDS011;31655;48.972;10.686;2023-04-15T15:07:19;2.83;;;2.00;;
45944;SDS011;31655;48.972;10.686;2023-04-15T15:09:49;2.20;;;1.50;;
45944;SDS011;31655;48.972;10.686;2023-04-15T15:12:16;2.13;;;1.30;;
45944;SDS011;31655;48.972;10.686;2023-04-15T15:14:42;2.00;;;1.45;;
45944;SDS011;31655;48.972;10.686;2023-04-15T15:17:09;2.58;;;1.60;;
45944;SDS011;31655;48.972;10.686;2023-04-15T15:19:37;2.50;;;1.60;;
45944;SDS011;31655;48.972;10.686;2023-04-15T15:22:03;3.42;;;2.08;;
45944;SDS011;31655;48.972;10.686;2023-04-15T15:24:29;3.63;;;1.98;;
45944;SDS011;31655;48.972;10.686;2023-04-15T15:26:57;2.42;;;1.75;;
45944;SDS011;31655;48.972;10.686;2023-04-15T15:29:25;2.38;;;1.70;;
45944;SDS011;31655;48.972;10.686;2023-04-15T15:31:58;3.50;;;2.05;;
45944;SDS011;31655;48.972;10.686;2023-04-15T15:34:23;4.57;;;2.00;;
45944;SDS011;31655;48.972;10.686;2023-04-15T15:36:49;2.92;;;2.15;;
45944;SDS011;31655;48.972;10.686;2023-04-15T15:39:15;2.25;;;1.65;;
45944;SDS011;31655;48.972;10.686;2023-04-15T15:41:41;2.45;;;1.67;;
45944;SDS011;31655;48.972;10.686;2023-04-15T15:44:10;1.70;;;1.60;;
45944;SDS011;31655;48.972;10.686;2023-04-15T15:46:36;2.60;;;1.92;;
45944;SDS011;31655;48.972;10.686;2023-04-15T15:49:02;2.17;;;1.80;;
45944;SDS011;31655;48.972;10.686;2023-04-15T15:51:28;2.97;;;1.73;;
45944;SDS011;31655;48.972;10.686;2023-04-15T15:53:56;2.58;;;1.90;;
45944;SDS011;31655;48.972;10.686;2023-04-15T15:56:22;6.00;;;2.50;;
45944;SDS011;31655;48.972;10.686;2023-04-15T15:58:51;7.45;;;3.65;;
45944;SDS011;31655;48.972;10.686;2023-04-15T16:01:17;5.63;;;3.70;;
45944;SDS011;31655;48.972;10.686;2023-04-15T16:03:42;2.58;;;2.15;;
45944;SDS011;31655;48.972;10.686;2023-04-15T16:06:08;8.07;;;2.25;;
45944;SDS011;31655;48.972;10.686;2023-04-15T16:08:35;2.33;;;1.95;;
45944;SDS011;31655;48.972;10.686;2023-04-15T16:11:02;3.78;;;2.38;;
45944;SDS011;31655;48.972;10.686;2023-04-15T16:13:28;4.18;;;3.22;;
45944;SDS011;31655;48.972;10.686;2023-04-15T16:15:54;3.08;;;2.13;;
45944;SDS011;31655;48.972;10.686;2023-04-15T16:18:20;2.75;;;2.00;;
45944;SDS011;31655;48.972;10.686;2023-04-15T16:20:46;3.33;;;2.33;;
45944;SDS011;31655;48.972;10.686;2023-04-15T16:23:14;3.97;;;2.80;;
45944;SDS011;31655;48.972;10.686;2023-04-15T16:25:41;2.88;;;2.15;;
45944;SDS011;31655;48.972;10.686;2023-04-15T16:28:08;3.53;;;2.22;;
45944;SDS011;31655;48.972;10.686;2023-04-15T16:30:38;3.30;;;2.00;;
45944;SDS011;31655;48.972;10.686;2023-04-15T16:36:29;4.25;;;2.05;;
45944;SDS011;31655;48.972;10.686;2023-04-15T16:38:56;2.75;;;1.80;;
45944;SDS011;31655;48.972;10.686;2023-04-15T16:41:22;6.38;;;2.55;;
45944;SDS011;31655;48.972;10.686;2023-04-15T16:43:48;3.67;;;3.10;;
45944;SDS011;31655;48.972;10.686;2023-04-15T16:46:14;2.42;;;2.10;;
45944;SDS011;31655;48.972;10.686;2023-04-15T16:48:40;2.75;;;2.15;;
45944;SDS011;31655;48.972;10.686;2023-04-15T16:51:06;2.92;;;2.33;;
45944;SDS011;31655;48.972;10.686;2023-04-15T16:53:32;4.47;;;2.60;;
45944;SDS011;31655;48.972;10.686;2023-04-15T16:55:58;3.17;;;2.47;;
45944;SDS011;31655;48.972;10.686;2023-04-15T16:58:25;3.80;;;2.67;;
45944;SDS011;31655;48.972;10.686;2023-04-15T17:00:52;5.78;;;3.25;;
45944;SDS011;31655;48.972;10.686;2023-04-15T17:03:18;4.97;;;3.53;;
45944;SDS011;31655;48.972;10.686;2023-04-15T17:05:44;3.50;;;2.60;;
45944;SDS011;31655;48.972;10.686;2023-04-15T17:08:10;5.45;;;4.32;;
45944;SDS011;31655;48.972;10.686;2023-04-15T17:10:36;3.42;;;3.13;;
45944;SDS011;31655;48.972;10.686;2023-04-15T17:13:02;3.53;;;3.22;;
45944;SDS011;31655;48.972;10.686;2023-04-15T17:15:27;4.10;;;3.08;;
45944;SDS011;31655;48.972;10.686;2023-04-15T17:17:53;4.90;;;3.35;;
45944;SDS011;31655;48.972;10.686;2023-04-15T17:20:19;3.45;;;3.00;;
45944;SDS011;31655;48.972;10.686;2023-04-15T17:22:46;4.85;;;4.05;;
45944;SDS011;31655;48.972;10.686;2023-04-15T17:25:12;4.50;;;3.80;;
45944;SDS011;31655;48.972;10.686;2023-04-15T17:27:39;6.85;;;5.72;;
45944;SDS011;31655;48.972;10.686;2023-04-15T17:30:05;5.50;;;4.50;;
45944;SDS011;31655;48.972;10.686;2023-04-15T17:32:32;4.75;;;3.72;;
45944;SDS011;31655;48.972;10.686;2023-04-15T17:35:04;8.27;;;5.15;;
45944;SDS011;31655;48.972;10.686;2023-04-15T17:37:33;4.43;;;3.53;;
45944;SDS011;31655;48.972;10.686;2023-04-15T17:39:59;3.38;;;3.08;;
45944;SDS011;31655;48.972;10.686;2023-04-15T17:42:25;6.22;;;4.20;;
45944;SDS011;31655;48.972;10.686;2023-04-15T17:44:51;4.63;;;3.78;;
45944;SDS011;31655;48.972;10.686;2023-04-15T17:47:17;4.00;;;3.38;;
45944;SDS011;31655;48.972;10.686;2023-04-15T17:49:43;4.32;;;3.78;;
45944;SDS011;31655;48.972;10.686;2023-04-15T17:52:09;4.85;;;3.72;;
45944;SDS011;31655;48.972;10.686;2023-04-15T17:54:34;4.13;;;3.63;;
45944;SDS011;31655;48.972;10.686;2023-04-15T17:57:00;3.78;;;3.35;;
45944;SDS011;31655;48.972;10.686;2023-04-15T17:59:27;6.40;;;3.50;;
45944;SDS011;31655;48.972;10.686;2023-04-15T18:01:53;3.90;;;3.35;;
45944;SDS011;31655;48.972;10.686;2023-04-15T18:04:19;4.45;;;3.10;;
45944;SDS011;31655;48.972;10.686;2023-04-15T18:06:45;4.15;;;3.20;;
45944;SDS011;31655;48.972;10.686;2023-04-15T18:09:12;3.65;;;3.28;;
45944;SDS011;31655;48.972;10.686;2023-04-15T18:11:39;3.65;;;3.35;;
45944;SDS011;31655;48.972;10.686;2023-04-15T18:14:06;4.70;;;3.08;;
45944;SDS011;31655;48.972;10.686;2023-04-15T18:16:32;5.15;;;3.60;;
45944;SDS011;31655;48.972;10.686;2023-04-15T18:18:58;4.78;;;3.35;;
45944;SDS011;31655;48.972;10.686;2023-04-15T18:21:23;5.13;;;3.92;;
45944;SDS011;31655;48.972;10.686;2023-04-15T18:23:51;6.03;;;4.60;;
45944;SDS011;31655;48.972;10.686;2023-04-15T18:26:16;5.32;;;4.43;;
45944;SDS011;31655;48.972;10.686;2023-04-15T18:28:42;4.60;;;3.97;;
45944;SDS011;31655;48.972;10.686;2023-04-15T18:31:08;5.20;;;4.07;;
45944;SDS011;31655;48.972;10.686;2023-04-15T18:33:34;6.32;;;4.45;;
45944;SDS011;31655;48.972;10.686;2023-04-15T18:36:00;6.03;;;4.03;;
45944;SDS011;31655;48.972;10.686;2023-04-15T18:38:29;4.75;;;4.15;;
45944;SDS011;31655;48.972;10.686;2023-04-15T18:40:55;4.43;;;3.40;;
45944;SDS011;31655;48.972;10.686;2023-04-15T18:43:21;5.20;;;4.25;;
45944;SDS011;31655;48.972;10.686;2023-04-15T18:45:47;5.88;;;4.20;;
45944;SDS011;31655;48.972;10.686;2023-04-15T18:48:13;5.78;;;4.13;;
45944;SDS011;31655;48.972;10.686;2023-04-15T18:50:40;6.35;;;4.40;;
45944;SDS011;31655;48.972;10.686;2023-04-15T18:53:06;5.28;;;4.05;;
45944;SDS011;31655;48.972;10.686;2023-04-15T18:55:32;5.30;;;4.15;;
45944;SDS011;31655;48.972;10.686;2023-04-15T18:57:59;7.93;;;5.13;;
45944;SDS011;31655;48.972;10.686;2023-04-15T19:00:25;7.45;;;4.88;;
45944;SDS011;31655;48.972;10.686;2023-04-15T19:02:51;7.90;;;4.95;;
45944;SDS011;31655;48.972;10.686;2023-04-15T19:05:17;5.80;;;4.28;;
45944;SDS011;31655;48.972;10.686;2023-04-15T19:07:44;5.15;;;4.05;;
45944;SDS011;31655;48.972;10.686;2023-04-15T19:10:10;4.93;;;4.22;;
45944;SDS011;31655;48.972;10.686;2023-04-15T19:12:36;6.40;;;3.85;;
45944;SDS011;31655;48.972;10.686;2023-04-15T19:15:02;6.40;;;4.78;;
45944;SDS011;31655;48.972;10.686;2023-04-15T19:17:28;4.88;;;4.38;;
45944;SDS011;31655;48.972;10.686;2023-04-15T19:19:55;4.78;;;3.85;;
45944;SDS011;31655;48.972;10.686;2023-04-15T19:22:21;7.88;;;4.80;;
45944;SDS011;31655;48.972;10.686;2023-04-15T19:24:47;5.20;;;4.13;;
45944;SDS011;31655;48.972;10.686;2023-04-15T19:27:13;4.95;;;4.18;;
45944;SDS011;31655;48.972;10.686;2023-04-15T19:29:39;6.53;;;4.80;;
45944;SDS011;31655;48.972;10.686;2023-04-15T19:32:04;5.15;;;3.85;;
45944;SDS011;31655;48.972;10.686;2023-04-15T19:34:30;6.15;;;4.63;;
45944;SDS011;31655;48.972;10.686;2023-04-15T19:36:56;6.15;;;4.47;;
45944;SDS011;31655;48.972;10.686;2023-04-15T19:39:22;7.28;;;5.15;;
45944;SDS011;31655;48.972;10.686;2023-04-15T19:41:48;6.50;;;4.65;;
45944;SDS011;31655;48.972;10.686;2023-04-15T19:44:14;8.80;;;5.10;;
45944;SDS011;31655;48.972;10.686;2023-04-15T19:46:40;6.00;;;4.90;;
45944;SDS011;31655;48.972;10.686;2023-04-15T19:49:08;6.82;;;5.10;;
45944;SDS011;31655;48.972;10.686;2023-04-15T19:51:34;6.03;;;4.63;;
45944;SDS011;31655;48.972;10.686;2023-04-15T19:54:00;6.78;;;4.97;;
45944;SDS011;31655;48.972;10.686;2023-04-15T19:56:26;6.38;;;5.15;;
45944;SDS011;31655;48.972;10.686;2023-04-15T19:58:53;6.53;;;5.00;;
45944;SDS011;31655;48.972;10.686;2023-04-15T20:01:19;6.35;;;5.28;;
45944;SDS011;31655;48.972;10.686;2023-04-15T20:03:46;6.15;;;5.07;;